createdAt,value
2018-01-19T00:00:52.265Z,99.90
2018-01-19T00:03:21.480Z,99.90
2018-01-19T00:05:50.733Z,99.90
2018-01-19T00:08:20.088Z,99.90
2018-01-19T00:10:49.333Z,99.90
2018-01-19T00:13:18.556Z,99.90
2018-01-19T00:15:47.820Z,99.90
2018-01-19T00:18:17.040Z,99.90
2018-01-19T00:20:46.312Z,99.90
2018-01-19T00:23:18.420Z,99.90
2018-01-19T00:25:47.673Z,99.90
2018-01-19T00:28:17.056Z,99.90
2018-01-19T00:30:47.055Z,99.90
2018-01-19T00:33:16.301Z,99.90
2018-01-19T00:35:45.546Z,99.90
2018-01-19T00:38:14.776Z,99.90
2018-01-19T00:40:44.025Z,99.90
2018-01-19T00:43:13.261Z,99.90
2018-01-19T00:45:43.268Z,99.90
2018-01-19T00:48:12.516Z,99.90
2018-01-19T00:50:41.754Z,99.90
2018-01-19T00:53:10.998Z,99.90
2018-01-19T00:55:40.236Z,99.90
2018-01-19T00:58:09.465Z,99.90
2018-01-19T01:00:38.725Z,99.90
2018-01-19T01:03:08.026Z,99.90
2018-01-19T01:05:37.720Z,99.90
2018-01-19T01:08:07.135Z,99.90
2018-01-19T01:10:36.569Z,99.90
2018-01-19T01:13:05.952Z,99.90
2018-01-19T01:15:35.305Z,99.90
2018-01-19T01:18:04.604Z,99.90
2018-01-19T01:20:33.939Z,99.90
2018-01-19T01:23:03.238Z,99.90
2018-01-19T01:25:32.533Z,99.90
2018-01-19T01:28:01.779Z,99.90
2018-01-19T01:30:30.984Z,99.90
2018-01-19T01:33:00.241Z,99.90
2018-01-19T01:35:29.513Z,99.90
2018-01-19T01:37:58.778Z,99.90
2018-01-19T01:40:28.025Z,99.90
2018-01-19T01:42:58.051Z,99.90
2018-01-19T01:45:28.157Z,99.90
2018-01-19T01:47:57.419Z,99.90
2018-01-19T01:50:26.664Z,99.90
2018-01-19T01:52:55.905Z,99.90
2018-01-19T01:55:25.162Z,99.90
2018-01-19T01:57:54.409Z,99.90
2018-01-19T02:00:23.688Z,99.90
2018-01-19T02:02:52.980Z,99.90
2018-01-19T02:05:22.208Z,99.90
2018-01-19T02:07:51.457Z,99.90
2018-01-19T02:10:20.686Z,99.90
2018-01-19T02:12:49.936Z,99.90
2018-01-19T02:15:19.180Z,99.90
2018-01-19T02:17:48.426Z,99.90
2018-01-19T02:20:17.669Z,99.90
2018-01-19T02:22:47.687Z,99.90
2018-01-19T02:25:16.929Z,99.90
2018-01-19T02:27:46.144Z,99.90
2018-01-19T02:30:15.390Z,99.90
2018-01-19T02:32:44.644Z,99.90
2018-01-19T02:35:13.921Z,99.90
2018-01-19T02:37:43.169Z,99.90
2018-01-19T02:40:12.401Z,99.90
2018-01-19T02:42:41.769Z,99.90
2018-01-19T02:45:11.097Z,99.90
2018-01-19T02:47:41.104Z,99.90
2018-01-19T02:50:10.949Z,99.90
2018-01-19T02:52:40.196Z,99.90
2018-01-19T02:55:09.427Z,99.90
2018-01-19T02:57:38.678Z,99.90
2018-01-19T03:00:07.940Z,99.90
2018-01-19T03:02:37.932Z,99.90
2018-01-19T03:05:07.160Z,99.90
2018-01-19T03:07:36.431Z,99.90
2018-01-19T03:10:06.501Z,99.90
2018-01-19T03:12:35.940Z,99.90
2018-01-19T03:15:05.161Z,99.90
2018-01-19T03:17:35.374Z,99.90
2018-01-19T03:20:04.600Z,99.90
2018-01-19T03:22:33.828Z,99.90
2018-01-19T03:25:03.072Z,99.90
2018-01-19T03:27:33.086Z,99.90
2018-01-19T03:30:02.302Z,99.90
2018-01-19T03:32:31.520Z,99.90
2018-01-19T03:35:00.773Z,99.90
2018-01-19T03:37:30.045Z,99.90
2018-01-19T03:39:59.298Z,99.90
2018-01-19T03:42:29.334Z,99.90
2018-01-19T03:44:59.330Z,99.90
2018-01-19T03:47:28.553Z,99.90
2018-01-19T03:49:57.824Z,99.90
2018-01-19T03:52:27.081Z,99.90
2018-01-19T03:54:56.333Z,99.90
2018-01-19T03:57:25.573Z,99.90
2018-01-19T03:59:55.020Z,99.90
2018-01-19T04:02:24.322Z,99.90
2018-01-19T04:04:53.561Z,99.90
2018-01-19T04:07:22.803Z,99.90
2018-01-19T04:09:52.033Z,99.90
2018-01-19T04:12:21.285Z,99.90
2018-01-19T04:14:50.546Z,99.90
2018-01-19T04:17:19.745Z,99.90
2018-01-19T04:19:49.772Z,99.90
2018-01-19T04:22:19.001Z,99.90
2018-01-19T04:24:48.271Z,99.90
2018-01-19T04:27:18.300Z,99.90
2018-01-19T04:29:47.552Z,99.90
2018-01-19T04:32:16.780Z,99.90
2018-01-19T04:34:46.845Z,99.90
2018-01-19T04:37:16.128Z,99.90
2018-01-19T04:39:45.360Z,99.90
2018-01-19T04:42:14.615Z,99.90
2018-01-19T04:44:44.616Z,99.90
2018-01-19T04:47:13.992Z,99.90
2018-01-19T04:49:43.241Z,99.90
2018-01-19T04:52:12.608Z,99.90
2018-01-19T04:54:41.854Z,99.90
2018-01-19T04:57:11.117Z,99.90
2018-01-19T04:59:40.382Z,99.90
2018-01-19T05:02:09.634Z,99.90
2018-01-19T05:04:39.733Z,99.90
2018-01-19T05:07:08.980Z,99.90
2018-01-19T05:09:38.236Z,99.90
2018-01-19T05:12:07.494Z,99.90
2018-01-19T05:14:36.744Z,99.90
2018-01-19T05:17:06.749Z,99.90
2018-01-19T05:19:35.980Z,99.90
2018-01-19T05:22:05.253Z,99.90
2018-01-19T05:24:34.457Z,99.90
2018-01-19T05:27:04.477Z,99.90
2018-01-19T05:29:34.477Z,99.90
2018-01-19T05:32:03.704Z,99.90
2018-01-19T05:34:33.716Z,99.90
2018-01-19T05:37:02.984Z,99.90
2018-01-19T05:39:32.254Z,99.90
2018-01-19T05:42:01.535Z,99.90
2018-01-19T05:44:31.613Z,99.90
2018-01-19T05:47:00.840Z,99.90
2018-01-19T05:49:30.092Z,99.90
2018-01-19T05:51:59.345Z,99.90
2018-01-19T05:54:28.573Z,99.90
2018-01-19T05:56:57.840Z,99.90
2018-01-19T05:59:27.335Z,99.90
2018-01-19T06:01:56.629Z,99.90
2018-01-19T06:04:25.856Z,99.90
2018-01-19T06:06:55.118Z,99.90
2018-01-19T06:09:24.364Z,99.90
2018-01-19T06:11:54.357Z,99.90
2018-01-19T06:14:25.129Z,99.90
2018-01-19T06:16:54.376Z,99.90
2018-01-19T06:19:24.597Z,99.90
2018-01-19T06:21:53.861Z,99.90
2018-01-19T06:24:23.124Z,99.90
2018-01-19T06:26:52.400Z,99.90
2018-01-19T06:29:21.613Z,99.90
2018-01-19T06:31:50.837Z,99.90
2018-01-19T06:34:20.112Z,99.90
2018-01-19T06:36:49.333Z,99.90
2018-01-19T06:39:19.326Z,99.90
2018-01-19T06:41:48.605Z,99.90
2018-01-19T06:44:17.840Z,99.90
2018-01-19T06:46:47.845Z,99.90
2018-01-19T06:49:17.090Z,99.90
2018-01-19T06:51:46.318Z,99.90
2018-01-19T06:54:15.565Z,99.90
2018-01-19T06:56:44.817Z,99.90
2018-01-19T06:59:14.047Z,99.90
2018-01-19T07:01:43.265Z,99.90
2018-01-19T07:04:12.536Z,99.90
2018-01-19T07:06:41.785Z,99.90
2018-01-19T07:09:11.037Z,99.90
2018-01-19T07:11:40.289Z,99.90
2018-01-19T07:14:09.540Z,99.90
2018-01-19T07:16:38.830Z,99.90
2018-01-19T07:19:08.092Z,99.90
2018-01-19T07:21:38.087Z,99.90
2018-01-19T07:24:07.338Z,99.90
2018-01-19T07:26:36.585Z,99.90
2018-01-19T07:29:06.600Z,99.90
2018-01-19T07:31:35.997Z,99.90
2018-01-19T07:34:05.248Z,99.90
2018-01-19T07:39:09.878Z,99.90
2018-01-19T07:41:39.742Z,99.90
2018-01-19T07:44:08.985Z,99.90
2018-01-19T07:46:38.229Z,99.90
2018-01-19T07:49:07.469Z,99.90
2018-01-19T07:51:37.540Z,99.90
2018-01-19T07:54:06.839Z,99.90
2018-01-19T07:56:36.102Z,99.90
2018-01-19T07:59:05.407Z,99.90
2018-01-19T08:01:34.666Z,99.90
2018-01-19T08:04:03.897Z,99.90
2018-01-19T08:06:33.906Z,99.90
2018-01-19T08:09:03.145Z,99.90
2018-01-19T08:11:32.636Z,99.90
2018-01-19T08:14:01.906Z,99.90
2018-01-19T08:16:31.212Z,99.90
2018-01-19T08:19:01.242Z,99.90
2018-01-19T08:21:30.486Z,99.90
2018-01-19T08:23:59.730Z,99.90
2018-01-19T08:26:29.009Z,99.90
2018-01-19T08:28:58.428Z,99.90
2018-01-19T08:31:28.283Z,99.90
2018-01-19T08:33:58.162Z,99.90
2018-01-19T08:36:28.091Z,99.90
2018-01-19T08:38:58.090Z,99.90
2018-01-19T08:41:28.843Z,99.90
2018-01-19T08:43:58.091Z,99.90
2018-01-19T08:46:27.378Z,99.90
2018-01-19T08:48:56.621Z,99.90
2018-01-19T08:51:27.030Z,99.90
2018-01-19T08:53:57.976Z,99.90
2018-01-19T08:56:28.927Z,99.90
2018-01-19T08:59:00.051Z,99.90
2018-01-19T09:01:30.763Z,99.90
2018-01-19T09:04:02.209Z,99.90
2018-01-19T09:06:32.674Z,99.90
2018-01-19T09:09:02.529Z,99.90
2018-01-19T09:11:32.895Z,99.90
2018-01-19T09:14:03.712Z,99.90
2018-01-19T09:16:33.117Z,99.90
2018-01-19T09:19:03.206Z,99.90
2018-01-19T09:21:32.528Z,99.90
2018-01-19T09:24:02.558Z,99.90
2018-01-19T09:26:31.820Z,99.90
2018-01-19T09:29:01.112Z,99.90
2018-01-19T09:31:30.331Z,99.90
2018-01-19T09:33:59.588Z,99.80
2018-01-19T09:36:28.866Z,99.70
2018-01-19T09:38:58.331Z,98.10
2018-01-19T09:41:27.585Z,97.70
2018-01-19T09:43:56.820Z,97.00
2018-01-19T09:46:26.061Z,95.40
2018-01-19T09:48:55.320Z,93.80
2018-01-19T09:51:24.555Z,94.00
2018-01-19T09:53:54.584Z,95.00
2018-01-19T09:56:23.816Z,95.00
2018-01-19T09:58:53.073Z,92.90
2018-01-19T10:01:23.087Z,91.80
2018-01-19T10:03:52.337Z,91.80
2018-01-19T10:06:21.557Z,88.30
2018-01-19T10:08:50.837Z,78.40
2018-01-19T10:11:20.066Z,72.00
2018-01-19T10:13:49.321Z,70.90
2018-01-19T10:16:18.573Z,70.60
2018-01-19T10:18:48.162Z,71.20
2018-01-19T10:21:18.210Z,67.10
2018-01-19T10:23:48.223Z,71.00
2018-01-19T10:26:17.459Z,70.30
2018-01-19T10:28:46.900Z,70.00
2018-01-19T10:31:16.148Z,70.90
2018-01-19T10:33:45.385Z,71.90
2018-01-19T10:36:14.626Z,74.10
2018-01-19T10:38:43.862Z,73.70
2018-01-19T10:41:13.110Z,74.50
2018-01-19T10:43:43.865Z,75.20
2018-01-19T10:46:13.857Z,67.40
2018-01-19T10:48:43.115Z,67.20
2018-01-19T10:51:12.350Z,62.20
2018-01-19T10:53:41.624Z,61.60
2018-01-19T10:56:11.097Z,56.60
2018-01-19T10:58:41.136Z,43.70
2018-01-19T11:01:10.372Z,43.50
2018-01-19T11:03:39.634Z,40.80
2018-01-19T11:06:08.890Z,37.50
2018-01-19T11:08:38.148Z,38.20
2018-01-19T11:11:07.408Z,39.70
2018-01-19T11:13:36.684Z,43.60
2018-01-19T11:16:05.948Z,47.80
2018-01-19T11:18:35.195Z,51.70
2018-01-19T11:21:04.452Z,54.60
2018-01-19T11:23:33.702Z,58.20
2018-01-19T11:26:02.969Z,58.00
2018-01-19T11:28:32.212Z,57.80
2018-01-19T11:31:02.257Z,56.70
2018-01-19T11:33:31.601Z,56.70
2018-01-19T11:36:00.846Z,54.30
2018-01-19T11:38:30.146Z,55.60
2018-01-19T11:40:59.392Z,59.50
2018-01-19T11:43:28.644Z,61.90
2018-01-19T11:45:59.171Z,59.20
2018-01-19T11:48:29.488Z,59.10
2018-01-19T11:51:00.079Z,59.50
2018-01-19T11:53:30.711Z,57.10
2018-01-19T11:56:00.051Z,56.40
2018-01-19T11:58:29.306Z,53.20
2018-01-19T12:00:58.547Z,54.50
2018-01-19T12:03:27.790Z,55.10
2018-01-19T12:05:57.038Z,50.80
2018-01-19T12:08:26.281Z,49.00
2018-01-19T12:10:55.545Z,46.00
2018-01-19T12:13:24.911Z,50.50
2018-01-19T12:15:54.174Z,51.00
2018-01-19T12:18:23.421Z,52.20
2018-01-19T12:20:52.664Z,52.30
2018-01-19T12:23:22.733Z,56.00
2018-01-19T12:25:51.969Z,56.00
2018-01-19T12:28:21.291Z,57.00
2018-01-19T12:30:50.531Z,59.70
2018-01-19T12:33:19.786Z,61.80
2018-01-19T12:35:49.777Z,64.10
2018-01-19T12:38:19.037Z,64.00
2018-01-19T12:40:48.313Z,65.00
2018-01-19T12:43:18.340Z,69.50
2018-01-19T12:45:48.433Z,69.50
2018-01-19T12:48:17.689Z,70.30
2018-01-19T12:50:46.934Z,71.30
2018-01-19T12:53:16.181Z,71.50
2018-01-19T12:55:45.416Z,72.00
2018-01-19T12:58:14.804Z,73.40
2018-01-19T13:00:44.048Z,73.50
2018-01-19T13:03:13.288Z,73.50
2018-01-19T13:05:42.515Z,75.20
2018-01-19T13:08:11.764Z,75.20
2018-01-19T13:10:41.042Z,75.90
2018-01-19T13:13:10.266Z,75.40
2018-01-19T13:15:40.297Z,76.70
2018-01-19T13:18:09.665Z,76.60
2018-01-19T13:20:38.910Z,77.50
2018-01-19T13:23:08.198Z,77.70
2018-01-19T13:25:37.506Z,76.30
2018-01-19T13:28:06.733Z,74.80
2018-01-19T13:30:35.999Z,75.30
2018-01-19T13:33:06.012Z,75.80
2018-01-19T13:35:35.265Z,75.80
2018-01-19T13:38:04.573Z,73.80
2018-01-19T13:40:33.825Z,69.60
2018-01-19T13:43:03.062Z,68.20
2018-01-19T13:45:32.301Z,68.00
2018-01-19T13:48:01.710Z,68.70
2018-01-19T13:50:31.702Z,68.70
2018-01-19T13:53:00.956Z,68.70
2018-01-19T13:55:30.210Z,68.70
2018-01-19T13:57:59.489Z,67.40
2018-01-19T14:00:29.559Z,64.50
2018-01-19T14:02:58.812Z,64.50
2018-01-19T14:05:28.107Z,65.60
2018-01-19T14:07:57.336Z,64.90
2018-01-19T14:10:27.360Z,64.50
2018-01-19T14:12:56.602Z,64.40
2018-01-19T14:15:26.077Z,63.90
2018-01-19T14:17:56.097Z,64.30
2018-01-19T14:20:25.346Z,64.30
2018-01-19T14:22:54.586Z,64.30
2018-01-19T14:25:23.856Z,64.00
2018-01-19T14:27:53.103Z,65.00
2018-01-19T14:30:22.348Z,66.20
2018-01-19T14:32:51.837Z,65.90
2018-01-19T14:35:21.080Z,67.60
2018-01-19T14:37:50.328Z,66.90
2018-01-19T14:40:19.566Z,67.50
2018-01-19T14:42:48.844Z,68.10
2018-01-19T14:45:18.085Z,68.80
2018-01-19T14:47:47.305Z,69.50
2018-01-19T14:50:16.561Z,69.50
2018-01-19T14:52:45.813Z,70.00
2018-01-19T14:55:15.082Z,71.90
2018-01-19T14:57:44.601Z,74.10
2018-01-19T15:00:14.651Z,81.10
2018-01-19T15:02:43.885Z,81.10
2018-01-19T15:05:13.330Z,82.10
2018-01-19T15:07:43.329Z,75.30
2018-01-19T15:10:12.581Z,75.30
2018-01-19T15:12:41.853Z,79.80
2018-01-19T15:15:11.864Z,80.50
2018-01-19T15:17:41.111Z,80.50
2018-01-19T15:20:10.343Z,82.40
2018-01-19T15:22:39.673Z,81.20
2018-01-19T15:25:09.677Z,77.90
2018-01-19T15:27:38.939Z,77.80
2018-01-19T15:30:08.201Z,80.40
2018-01-19T15:32:38.197Z,77.90
2018-01-19T15:35:07.461Z,78.00
2018-01-19T15:37:36.703Z,80.60
2018-01-19T15:40:06.717Z,79.60
2018-01-19T15:42:35.949Z,79.60
2018-01-19T15:45:05.251Z,80.00
2018-01-19T15:47:35.349Z,81.10
2018-01-19T15:50:05.368Z,88.20
2018-01-19T15:52:35.577Z,90.40
2018-01-19T15:55:06.998Z,91.60
2018-01-19T15:57:37.951Z,91.30
2018-01-19T16:00:08.104Z,93.10
2018-01-19T16:02:37.345Z,93.00
2018-01-19T16:05:06.611Z,93.20
2018-01-19T16:07:36.668Z,94.40
2018-01-19T16:10:06.086Z,94.40
2018-01-19T16:12:35.398Z,94.60
2018-01-19T16:15:04.680Z,94.90
2018-01-19T16:17:33.949Z,95.50
2018-01-19T16:20:03.963Z,95.80
2018-01-19T16:22:33.224Z,95.70
2018-01-19T16:25:02.478Z,96.00
2018-01-19T16:27:31.717Z,96.50
2018-01-19T16:30:00.994Z,96.70
2018-01-19T16:32:30.255Z,97.10
2018-01-19T16:34:59.487Z,97.00
2018-01-19T16:37:28.746Z,97.20
2018-01-19T16:39:58.740Z,97.30
2018-01-19T16:42:28.005Z,97.30
2018-01-19T16:44:57.297Z,97.50
2018-01-19T16:47:26.502Z,97.70
2018-01-19T16:49:55.754Z,97.80
2018-01-19T16:52:25.012Z,98.00
2018-01-19T16:54:54.260Z,98.40
2018-01-19T16:57:23.488Z,99.20
2018-01-19T16:59:52.751Z,99.60
2018-01-19T17:02:21.980Z,99.70
2018-01-19T17:04:51.233Z,99.90
2018-01-19T17:07:20.575Z,99.90
2018-01-19T17:09:50.600Z,99.90
2018-01-19T17:12:19.840Z,99.90
2018-01-19T17:14:49.079Z,99.90
2018-01-19T17:17:18.341Z,99.90
2018-01-19T17:19:47.584Z,99.90
2018-01-19T17:22:16.869Z,99.90
2018-01-19T17:24:46.119Z,99.90
2018-01-19T17:27:15.367Z,99.90
2018-01-19T17:29:44.609Z,99.90
2018-01-19T17:32:13.884Z,99.90
2018-01-19T17:34:43.158Z,99.90
2018-01-19T17:37:12.385Z,99.90
2018-01-19T17:39:42.404Z,99.90
2018-01-19T17:42:11.692Z,99.90
2018-01-19T17:44:40.936Z,99.90
2018-01-19T17:47:10.192Z,99.90
2018-01-19T17:49:39.448Z,99.90
2018-01-19T17:52:08.730Z,99.90
2018-01-19T17:54:38.026Z,99.90
2018-01-19T17:57:07.462Z,99.90
2018-01-19T17:59:36.727Z,99.90
2018-01-19T18:02:06.755Z,99.90
2018-01-19T18:04:36.005Z,99.90
2018-01-19T18:07:05.234Z,99.90
2018-01-19T18:09:35.248Z,99.90
2018-01-19T18:12:04.485Z,99.90
2018-01-19T18:14:33.785Z,99.90
2018-01-19T18:17:03.014Z,99.90
2018-01-19T18:19:32.265Z,99.90
2018-01-19T18:22:02.369Z,99.90
2018-01-19T18:24:31.676Z,99.90
2018-01-19T18:27:01.153Z,99.90
2018-01-19T18:29:30.462Z,99.90
2018-01-19T18:31:59.684Z,99.90
2018-01-19T18:34:28.985Z,99.90
2018-01-19T18:36:58.234Z,99.90
2018-01-19T18:39:27.456Z,99.90
2018-01-19T18:41:56.721Z,99.90
2018-01-19T18:44:25.999Z,99.90
2018-01-19T18:46:55.234Z,99.90
2018-01-19T18:49:24.730Z,99.90
2018-01-19T18:51:54.056Z,99.90
2018-01-19T18:54:23.306Z,99.90
2018-01-19T18:56:52.694Z,99.90
2018-01-19T18:59:21.931Z,99.90
2018-01-19T19:01:51.218Z,99.90
2018-01-19T19:04:20.457Z,99.90
2018-01-19T19:06:49.700Z,99.90
2018-01-19T19:09:18.959Z,99.90
2018-01-19T19:11:48.199Z,99.90
2018-01-19T19:14:17.464Z,99.90
2018-01-19T19:16:46.725Z,99.90
2018-01-19T19:19:15.993Z,99.90
2018-01-19T19:21:45.204Z,99.90
2018-01-19T19:24:15.220Z,99.90
2018-01-19T19:26:44.457Z,99.90
2018-01-19T19:29:13.693Z,99.90
2018-01-19T19:31:42.940Z,99.90
2018-01-19T19:34:12.176Z,99.90
2018-01-19T19:36:41.418Z,99.90
2018-01-19T19:39:11.416Z,99.90
2018-01-19T19:41:40.676Z,99.90
2018-01-19T19:44:10.156Z,99.90
2018-01-19T19:46:40.163Z,99.90
2018-01-19T19:49:09.483Z,99.90
2018-01-19T19:51:38.900Z,99.90
2018-01-19T19:54:08.270Z,99.90
2018-01-19T19:56:37.662Z,99.90
2018-01-19T19:59:07.026Z,99.90
2018-01-19T20:01:36.480Z,99.90
2018-01-19T20:04:05.728Z,99.90
2018-01-19T20:06:34.983Z,99.90
2018-01-19T20:09:04.344Z,99.90
2018-01-19T20:11:33.577Z,99.90
2018-01-19T20:14:02.828Z,99.90
2018-01-19T20:16:32.112Z,99.90
2018-01-19T20:19:02.106Z,99.90
2018-01-19T20:21:31.365Z,99.90
2018-01-19T20:24:00.589Z,99.90
2018-01-19T20:26:30.068Z,99.90
2018-01-19T20:28:59.625Z,99.90
2018-01-19T20:31:29.009Z,99.90
2018-01-19T20:33:58.261Z,99.90
2018-01-19T20:36:28.672Z,99.90
2018-01-19T20:38:58.292Z,99.90
2018-01-19T20:41:27.565Z,99.90
2018-01-19T20:43:57.601Z,99.90
2018-01-19T20:46:27.306Z,99.90
2018-01-19T20:48:56.589Z,99.90
2018-01-19T20:51:25.850Z,99.90
2018-01-19T20:53:55.081Z,99.90
2018-01-19T20:56:24.329Z,99.90
2018-01-19T20:58:53.575Z,99.90
2018-01-19T21:01:22.889Z,99.90
2018-01-19T21:03:52.171Z,99.90
2018-01-19T21:06:21.405Z,99.90
2018-01-19T21:08:51.428Z,99.90
2018-01-19T21:11:21.431Z,99.90
2018-01-19T21:13:50.672Z,99.90
2018-01-19T21:16:19.927Z,99.90
2018-01-19T21:18:49.175Z,99.90
2018-01-19T21:21:18.433Z,99.90
2018-01-19T21:23:48.643Z,99.90
2018-01-19T21:26:17.893Z,99.90
2018-01-19T21:28:47.173Z,99.90
2018-01-19T21:31:16.434Z,99.90
2018-01-19T21:33:45.722Z,99.90
2018-01-19T21:36:15.120Z,99.90
2018-01-19T21:38:44.384Z,99.90
2018-01-19T21:41:13.670Z,99.90
2018-01-19T21:43:43.065Z,99.90
2018-01-19T21:46:12.353Z,99.90
2018-01-19T21:48:41.650Z,99.90
2018-01-19T21:51:10.930Z,99.90
2018-01-19T21:53:40.162Z,99.90
2018-01-19T21:56:10.966Z,99.90
2018-01-19T21:58:40.219Z,99.90
2018-01-19T22:01:09.531Z,99.90
2018-01-19T22:03:38.806Z,99.90
2018-01-19T22:06:09.570Z,99.90
2018-01-19T22:08:38.819Z,99.90
2018-01-19T22:11:08.263Z,99.90
2018-01-19T22:13:38.265Z,99.90
2018-01-19T22:16:07.512Z,99.90
2018-01-19T22:18:36.757Z,99.90
2018-01-19T22:21:06.062Z,99.90
2018-01-19T22:23:35.317Z,99.90
2018-01-19T22:26:04.565Z,99.90
2018-01-19T22:28:33.837Z,99.90
2018-01-19T22:31:03.105Z,99.90
2018-01-19T22:33:32.356Z,99.90
2018-01-19T22:36:01.608Z,99.90
2018-01-19T22:38:30.880Z,99.90
2018-01-19T22:41:00.430Z,99.90
2018-01-19T22:43:29.753Z,99.90
2018-01-19T22:45:58.972Z,99.90
2018-01-19T22:48:28.267Z,99.90
2018-01-19T22:50:57.802Z,99.90
2018-01-19T22:53:27.087Z,99.90
2018-01-19T22:55:56.386Z,99.90
2018-01-19T22:58:25.655Z,99.90
2018-01-19T23:00:54.917Z,99.90
2018-01-19T23:03:24.177Z,99.90
2018-01-19T23:05:53.409Z,99.90
2018-01-19T23:08:22.669Z,99.90
2018-01-19T23:10:51.895Z,99.90
2018-01-19T23:13:21.205Z,99.90
2018-01-19T23:15:50.389Z,99.90
2018-01-19T23:18:19.664Z,99.90
2018-01-19T23:20:48.994Z,99.90
2018-01-19T23:23:18.247Z,99.90
2018-01-19T23:25:47.475Z,99.90
2018-01-19T23:28:16.717Z,99.90
2018-01-19T23:30:46.076Z,99.90
2018-01-19T23:33:15.352Z,99.90
2018-01-19T23:35:44.629Z,99.90
2018-01-19T23:38:13.867Z,99.90
2018-01-19T23:40:43.109Z,99.90
2018-01-19T23:43:13.148Z,99.90
2018-01-19T23:45:43.212Z,99.90
2018-01-19T23:48:12.687Z,99.90
2018-01-19T23:50:43.025Z,99.90
2018-01-19T23:53:12.747Z,99.90
2018-01-19T23:55:42.025Z,99.90
2018-01-19T23:58:11.728Z,99.90
